createdAt,value
2022-12-05T00:02:17.247Z,96149.97
2022-12-05T00:04:46.392Z,96150.78
2022-12-05T00:07:14.830Z,96154.50
2022-12-05T00:09:43.466Z,96156.34
2022-12-05T00:12:12.374Z,96148.13
2022-12-05T00:14:40.739Z,96158.19
2022-12-05T00:17:09.177Z,96141.28
2022-12-05T00:19:39.931Z,96146.66
2022-12-05T00:22:09.010Z,96154.09
2022-12-05T00:24:37.377Z,96151.63
2022-12-05T00:27:06.785Z,96152.22
2022-12-05T00:29:35.141Z,96153.66
2022-12-05T00:32:04.383Z,96154.91
2022-12-05T00:34:33.070Z,96154.09
2022-12-05T00:37:02.822Z,96161.50
2022-12-05T00:39:32.053Z,96158.41
2022-12-05T00:42:00.439Z,96152.84
2022-12-05T00:44:29.270Z,96164.59
2022-12-05T00:46:57.664Z,96176.97
2022-12-05T00:49:26.041Z,96165.41
2022-12-05T00:51:55.675Z,96174.06
2022-12-05T00:54:25.383Z,96177.78
2022-12-05T00:56:56.278Z,96176.34
2022-12-05T00:59:25.112Z,96162.13
2022-12-05T01:01:53.632Z,96177.19
2022-12-05T01:04:24.267Z,96185.44
2022-12-05T01:06:57.407Z,96171.41
2022-12-05T01:09:27.169Z,96185.66
2022-12-05T01:11:55.982Z,96185.63
2022-12-05T01:14:26.541Z,96191.19
2022-12-05T01:16:56.850Z,96203.59
2022-12-05T01:19:27.793Z,96208.53
2022-12-05T01:21:56.688Z,96218.63
2022-12-05T01:24:28.513Z,96234.72
2022-12-05T01:26:57.353Z,96234.94
2022-12-05T01:29:26.402Z,96239.66
2022-12-05T01:31:55.089Z,96235.09
2022-12-05T01:34:24.265Z,96250.75
2022-12-05T01:36:53.033Z,96239.81
2022-12-05T01:39:21.599Z,96225.41
2022-12-05T01:41:52.283Z,96237.53
2022-12-05T01:45:01.253Z,96228.47
2022-12-05T01:47:32.444Z,96214.22
2022-12-05T01:50:01.180Z,96230.53
2022-12-05T01:52:32.456Z,96232.16
2022-12-05T01:55:06.989Z,96225.19
2022-12-05T01:57:37.406Z,96240.66
2022-12-05T02:00:12.250Z,96249.09
2022-12-05T02:02:42.886Z,96251.94
2022-12-05T02:05:17.151Z,96251.28
2022-12-05T02:07:48.300Z,96248.78
2022-12-05T02:10:17.260Z,96245.47
2022-12-05T02:12:48.197Z,96247.13
2022-12-05T02:15:29.738Z,96258.66
2022-12-05T02:18:10.832Z,96270.56
2022-12-05T02:20:51.311Z,96272.00
2022-12-05T02:24:12.944Z,96275.75
2022-12-05T02:27:05.620Z,96273.94
2022-12-05T02:30:00.070Z,96275.94
2022-12-05T02:32:39.608Z,96284.97
2022-12-05T02:35:17.832Z,96281.47
2022-12-05T02:37:55.387Z,96292.84
2022-12-05T02:40:31.386Z,96286.88
2022-12-05T02:43:03.270Z,96293.84
2022-12-05T02:45:39.210Z,96288.47
2022-12-05T02:48:08.226Z,96291.56
2022-12-05T02:50:40.257Z,96295.53
2022-12-05T02:53:12.036Z,96285.47
2022-12-05T02:55:42.926Z,96294.53
2022-12-05T02:58:17.362Z,96312.25
2022-12-05T03:00:51.134Z,96337.13
2022-12-05T03:03:22.820Z,96329.41
2022-12-05T03:05:58.407Z,96317.69
2022-12-05T03:08:32.078Z,96308.63
2022-12-05T03:11:03.492Z,96298.94
2022-12-05T03:13:37.451Z,96309.69
2022-12-05T03:16:12.603Z,96276.03
2022-12-05T03:18:47.106Z,96325.78
2022-12-05T03:21:23.409Z,96328.28
2022-12-05T03:23:56.858Z,96320.84
2022-12-05T03:26:37.932Z,96332.59
2022-12-05T03:29:22.234Z,96325.97
2022-12-05T03:32:02.075Z,96333.22
2022-12-05T03:34:43.656Z,96309.13
2022-12-05T03:37:16.594Z,96327.28
2022-12-05T03:39:50.818Z,96325.41
2022-12-05T03:42:30.187Z,96328.91
2022-12-05T03:45:02.782Z,96322.94
2022-12-05T03:47:40.497Z,96337.16
2022-12-05T03:50:14.591Z,96347.63
2022-12-05T03:53:18.210Z,96374.81
2022-12-05T03:55:40.783Z,96355.22
2022-12-05T03:58:16.083Z,96350.22
2022-12-05T04:00:47.922Z,96352.03
2022-12-05T04:03:24.181Z,96372.69
2022-12-05T04:05:57.092Z,96380.50
2022-12-05T04:08:29.355Z,96377.63
2022-12-05T04:11:03.578Z,96381.72
2022-12-05T04:13:36.257Z,96386.06
2022-12-05T04:16:28.643Z,96388.72
2022-12-05T04:19:04.411Z,96387.09
2022-12-05T04:21:39.015Z,96376.97
2022-12-05T04:24:27.863Z,96400.88
2022-12-05T04:27:07.190Z,96400.63
2022-12-05T04:29:42.444Z,96385.25
2022-12-05T04:32:14.486Z,96411.28
2022-12-05T04:34:51.816Z,96416.00
2022-12-05T04:37:24.962Z,96417.81
2022-12-05T04:39:57.959Z,96429.69
2022-12-05T04:42:30.913Z,96414.63
2022-12-05T04:45:04.350Z,96418.13
2022-12-05T04:47:39.090Z,96408.84
2022-12-05T04:50:12.136Z,96419.97
2022-12-05T04:52:43.135Z,96425.13
2022-12-05T04:55:14.813Z,96415.66
2022-12-05T04:57:51.369Z,96413.22
2022-12-05T05:00:20.157Z,96420.78
2022-12-05T05:02:54.003Z,96430.09
2022-12-05T05:05:25.040Z,96428.44
2022-12-05T05:07:57.091Z,96433.16
2022-12-05T05:10:34.285Z,96426.34
2022-12-05T05:13:02.697Z,96425.25
2022-12-05T05:15:31.506Z,96421.34
2022-12-05T05:18:00.191Z,96430.94
2022-12-05T05:20:29.962Z,96431.16
2022-12-05T05:22:59.409Z,96429.34
2022-12-05T05:25:27.772Z,96431.38
2022-12-05T05:27:57.992Z,96428.28
2022-12-05T05:30:26.634Z,96427.03
2022-12-05T05:32:55.649Z,96423.13
2022-12-05T05:35:24.094Z,96419.63
2022-12-05T05:37:53.894Z,96433.81
2022-12-05T05:40:22.229Z,96431.16
2022-12-05T05:42:52.104Z,96420.81
2022-12-05T05:45:20.962Z,96429.50
2022-12-05T05:47:50.336Z,96429.28
2022-12-05T05:50:21.681Z,96419.16
2022-12-05T05:52:50.457Z,96437.38
2022-12-05T05:55:21.814Z,96432.03
2022-12-05T05:57:50.220Z,96443.81
2022-12-05T06:00:20.142Z,96433.41
2022-12-05T06:02:48.640Z,96443.75
2022-12-05T06:05:17.732Z,96455.44
2022-12-05T06:07:46.387Z,96444.88
2022-12-05T06:10:15.064Z,96456.88
2022-12-05T06:12:45.141Z,96473.13
2022-12-05T06:15:13.999Z,96466.75
2022-12-05T06:17:43.056Z,96474.31
2022-12-05T06:20:12.319Z,96480.03
2022-12-05T06:22:41.013Z,96484.19
2022-12-05T06:25:10.835Z,96482.16
2022-12-05T06:27:39.320Z,96476.81
2022-12-05T06:30:10.805Z,96478.81
2022-12-05T06:32:39.155Z,96477.25
2022-12-05T06:35:15.579Z,96484.44
2022-12-05T06:37:44.393Z,96486.09
2022-12-05T06:40:14.262Z,96484.06
2022-12-05T06:42:42.644Z,96476.03
2022-12-05T06:45:13.457Z,96485.16
2022-12-05T06:47:42.312Z,96483.69
2022-12-05T06:50:11.453Z,96494.66
2022-12-05T06:52:40.392Z,96498.78
2022-12-05T06:55:09.294Z,96509.50
2022-12-05T06:57:37.884Z,96512.78
2022-12-05T07:00:25.370Z,96522.66
2022-12-05T07:02:55.772Z,96521.41
2022-12-05T07:05:24.271Z,96540.56
2022-12-05T07:07:52.658Z,96529.78
2022-12-05T07:10:21.570Z,96542.34
2022-12-05T07:12:49.921Z,96546.69
2022-12-05T07:15:19.226Z,96545.03
2022-12-05T07:17:47.879Z,96545.66
2022-12-05T07:20:18.344Z,96559.69
2022-12-05T07:22:47.521Z,96558.75
2022-12-05T07:25:16.939Z,96555.75
2022-12-05T07:27:46.110Z,96557.41
2022-12-05T07:30:14.993Z,96559.06
2022-12-05T07:32:43.799Z,96552.59
2022-12-05T07:35:12.620Z,96568.94
2022-12-05T07:37:42.807Z,96568.44
2022-12-05T07:40:14.683Z,96566.47
2022-12-05T07:42:43.474Z,96550.72
2022-12-05T07:45:12.657Z,96567.22
2022-12-05T07:47:41.309Z,96564.53
2022-12-05T07:50:10.922Z,96570.09
2022-12-05T07:52:39.710Z,96564.94
2022-12-05T07:55:10.724Z,96569.47
2022-12-05T07:57:39.206Z,96572.50
2022-12-05T08:00:08.711Z,96568.81
2022-12-05T08:02:41.359Z,96567.63
2022-12-05T08:05:10.761Z,96570.72
2022-12-05T08:07:39.285Z,96564.28
2022-12-05T08:10:10.656Z,96571.63
2022-12-05T08:12:39.770Z,96580.66
2022-12-05T08:15:10.600Z,96576.97
2022-12-05T08:17:39.042Z,96576.97
2022-12-05T08:20:09.622Z,96581.75
2022-12-05T08:22:37.969Z,96583.22
2022-12-05T08:25:07.595Z,96577.66
2022-12-05T08:27:37.871Z,96581.44
2022-12-05T08:30:07.864Z,96585.19
2022-12-05T08:32:37.210Z,96583.34
2022-12-05T08:35:06.530Z,96590.81
2022-12-05T08:37:35.593Z,96587.94
2022-12-05T08:40:04.856Z,96580.09
2022-12-05T08:42:33.245Z,96592.47
2022-12-05T08:45:03.538Z,96579.63
2022-12-05T08:47:32.736Z,96587.09
2022-12-05T08:50:01.179Z,96591.63
2022-12-05T08:52:30.126Z,96585.06
2022-12-05T08:54:59.926Z,96593.28
2022-12-05T08:57:28.546Z,96603.59
2022-12-05T08:59:57.367Z,96610.44
2022-12-05T09:02:27.405Z,96612.09
2022-12-05T09:05:01.709Z,96613.94
2022-12-05T09:07:38.160Z,96608.59
2022-12-05T09:10:08.096Z,96603.03
2022-12-05T09:12:38.181Z,96604.50
2022-12-05T09:15:09.130Z,96604.94
2022-12-05T09:17:40.513Z,96617.94
2022-12-05T09:20:11.734Z,96621.25
2022-12-05T09:22:41.508Z,96628.09
2022-12-05T09:25:10.646Z,96628.94
2022-12-05T09:27:39.605Z,96627.28
2022-12-05T09:30:09.555Z,96638.41
2022-12-05T09:32:40.883Z,96626.25
2022-12-05T09:35:09.972Z,96626.50
2022-12-05T09:37:39.827Z,96638.47
2022-12-05T09:40:16.362Z,96635.78
2022-12-05T09:42:57.802Z,96636.00
2022-12-05T09:45:35.738Z,96635.44
2022-12-05T09:48:12.601Z,96636.06
2022-12-05T09:50:46.636Z,96626.16
2022-12-05T09:53:29.007Z,96631.13
2022-12-05T09:56:03.219Z,96634.00
2022-12-05T09:58:42.437Z,96625.34
2022-12-05T10:01:25.492Z,96628.63
2022-12-05T10:04:08.731Z,96631.56
2022-12-05T10:06:42.714Z,96630.16
2022-12-05T10:09:26.711Z,96630.53
2022-12-05T10:12:01.121Z,96632.97
2022-12-05T10:14:39.049Z,96625.53
2022-12-05T10:17:16.585Z,96624.56
2022-12-05T10:19:49.256Z,96634.06
2022-12-05T10:22:24.705Z,96631.63
2022-12-05T10:24:57.213Z,96634.09
2022-12-05T10:27:40.314Z,96627.91
2022-12-05T10:30:16.204Z,96622.44
2022-12-05T10:32:53.540Z,96620.84
2022-12-05T10:35:25.869Z,96618.88
2022-12-05T10:37:57.911Z,96618.47
2022-12-05T10:40:35.746Z,96612.13
2022-12-05T10:43:06.377Z,96617.72
2022-12-05T10:45:40.737Z,96616.53
2022-12-05T10:48:13.784Z,96615.09
2022-12-05T10:50:45.647Z,96613.03
2022-12-05T10:53:18.287Z,96605.66
2022-12-05T10:56:21.380Z,96607.66
2022-12-05T10:58:38.782Z,96596.94
2022-12-05T11:01:10.745Z,96592.47
2022-12-05T11:03:41.641Z,96592.72
2022-12-05T11:06:19.094Z,96598.69
2022-12-05T11:09:09.510Z,96591.63
2022-12-05T11:11:38.101Z,96595.59
2022-12-05T11:14:08.949Z,96594.59
2022-12-05T11:16:39.227Z,96589.66
2022-12-05T11:19:27.472Z,96587.56
2022-12-05T11:21:57.320Z,96590.47
2022-12-05T11:24:30.161Z,96580.78
2022-12-05T11:27:00.106Z,96577.50
2022-12-05T11:29:35.189Z,96580.41
2022-12-05T11:32:04.929Z,96581.03
2022-12-05T11:34:40.866Z,96581.03
2022-12-05T11:37:15.879Z,96574.28
2022-12-05T11:39:44.499Z,96578.84
2022-12-05T11:42:40.862Z,96579.03
2022-12-05T11:45:32.382Z,96586.03
2022-12-05T11:48:24.722Z,96572.44
2022-12-05T11:51:12.707Z,96576.16
2022-12-05T11:54:00.488Z,96575.19
2022-12-05T11:56:39.088Z,96577.66
2022-12-05T11:59:28.104Z,96578.88
2022-12-05T12:02:02.683Z,96580.38
2022-12-05T12:04:41.719Z,96576.66
2022-12-05T12:07:26.170Z,96553.72
2022-12-05T12:10:09.637Z,96576.47
2022-12-05T12:12:50.735Z,96575.84
2022-12-05T12:15:36.226Z,96581.25
2022-12-05T12:18:14.469Z,96572.75
2022-12-05T12:20:58.735Z,96580.22
2022-12-05T12:24:04.241Z,96570.56
2022-12-05T12:26:47.220Z,96578.41
2022-12-05T12:29:27.357Z,96581.91
2022-12-05T12:32:05.749Z,96579.84
2022-12-05T12:34:56.941Z,96578.84
2022-12-05T12:37:35.102Z,96573.88
2022-12-05T12:40:15.740Z,96561.88
2022-12-05T12:42:57.337Z,96579.03
2022-12-05T12:45:39.650Z,96568.31
2022-12-05T12:48:21.875Z,96574.28
2022-12-05T12:50:53.688Z,96569.38
2022-12-05T12:53:45.012Z,96577.63
2022-12-05T12:56:26.424Z,96553.00
2022-12-05T12:59:06.056Z,96573.50
2022-12-05T13:01:41.464Z,96568.31
2022-12-05T13:04:15.072Z,96570.56
2022-12-05T13:06:49.157Z,96572.63
2022-12-05T13:09:21.309Z,96564.78
2022-12-05T13:11:52.068Z,96555.50
2022-12-05T13:14:25.828Z,96559.00
2022-12-05T13:16:57.055Z,96557.16
2022-12-05T13:19:30.331Z,96555.72
2022-12-05T13:22:00.172Z,96564.38
2022-12-05T13:24:30.231Z,96561.31
2022-12-05T13:27:01.400Z,96572.88
2022-12-05T13:29:35.474Z,96571.84
2022-12-05T13:32:06.933Z,96567.50
2022-12-05T13:34:47.230Z,96562.97
2022-12-05T13:37:42.395Z,96564.00
2022-12-05T13:40:42.256Z,96542.25
2022-12-05T13:43:12.670Z,96557.34
2022-12-05T13:45:53.589Z,96560.06
2022-12-05T13:48:26.838Z,96562.53
2022-12-05T13:50:59.894Z,96565.66
2022-12-05T13:53:37.530Z,96571.44
2022-12-05T13:56:08.527Z,96564.41
2022-12-05T13:58:50.222Z,96579.69
2022-12-05T14:01:55.347Z,96573.75
2022-12-05T14:04:44.526Z,96570.81
2022-12-05T14:07:13.290Z,96561.13
2022-12-05T14:09:55.209Z,96551.41
2022-12-05T14:12:49.944Z,96561.53
2022-12-05T14:15:33.000Z,96556.56
2022-12-05T14:18:07.475Z,96555.34
2022-12-05T14:21:04.805Z,96566.50
2022-12-05T14:23:59.826Z,96563.00
2022-12-05T14:26:40.430Z,96568.38
2022-12-05T14:29:40.991Z,96563.00
2022-12-05T14:32:23.592Z,96561.13
2022-12-05T14:35:02.853Z,96563.63
2022-12-05T14:37:34.514Z,96559.28
2022-12-05T14:40:16.483Z,96551.41
2022-12-05T14:42:54.077Z,96577.03
2022-12-05T14:45:28.665Z,96558.84
2022-12-05T14:47:59.177Z,96561.53
2022-12-05T14:50:43.259Z,96564.88
2022-12-05T14:53:20.249Z,96576.44
2022-12-05T14:55:52.022Z,96571.91
2022-12-05T14:58:27.112Z,96577.66
2022-12-05T15:00:58.824Z,96581.81
2022-12-05T15:03:33.430Z,96584.28
2022-12-05T15:06:06.522Z,96587.38
2022-12-05T15:08:45.365Z,96578.66
2022-12-05T15:11:28.264Z,96586.94
2022-12-05T15:14:01.617Z,96586.09
2022-12-05T15:16:32.535Z,96592.28
2022-12-05T15:19:07.173Z,96602.81
2022-12-05T15:21:42.770Z,96599.50
2022-12-05T15:24:14.584Z,96597.84
2022-12-05T15:26:48.973Z,96587.94
2022-12-05T15:29:26.713Z,96592.50
2022-12-05T15:31:56.965Z,96597.06
2022-12-05T15:34:30.274Z,96594.59
2022-12-05T15:37:06.011Z,96588.00
2022-12-05T15:39:55.055Z,96586.34
2022-12-05T15:42:29.627Z,96580.78
2022-12-05T15:45:18.371Z,96591.94
2022-12-05T15:47:48.843Z,96579.94
2022-12-05T15:50:22.279Z,96585.53
2022-12-05T15:52:54.770Z,96593.41
2022-12-05T15:55:28.553Z,96592.38
2022-12-05T15:58:08.128Z,96587.59
2022-12-05T16:00:44.077Z,96592.16
2022-12-05T16:03:19.405Z,96591.13
2022-12-05T16:05:53.292Z,96583.06
2022-12-05T16:08:25.172Z,96579.75
2022-12-05T16:10:53.785Z,96593.81
2022-12-05T16:13:26.358Z,96599.59
2022-12-05T16:15:55.952Z,96604.56
2022-12-05T16:18:28.339Z,96604.56
2022-12-05T16:20:57.563Z,96610.97
2022-12-05T16:23:30.001Z,96610.75
2022-12-05T16:26:22.231Z,96585.50
2022-12-05T16:29:01.316Z,96609.72
2022-12-05T16:31:30.525Z,96607.03
2022-12-05T16:34:05.164Z,96610.53
2022-12-05T16:36:34.882Z,96604.56
2022-12-05T16:39:07.699Z,96605.81
2022-12-05T16:41:37.348Z,96605.81
2022-12-05T16:44:15.202Z,96597.75
2022-12-05T16:46:47.412Z,96604.78
2022-12-05T16:49:23.911Z,96603.94
2022-12-05T16:52:00.495Z,96610.97
2022-12-05T16:54:30.788Z,96603.53
2022-12-05T16:57:01.720Z,96605.19
2022-12-05T16:59:34.283Z,96612.22
2022-12-05T17:02:05.265Z,96616.13
2022-12-05T17:04:34.062Z,96614.28
2022-12-05T17:07:02.852Z,96612.63
2022-12-05T17:09:32.517Z,96615.72
2022-12-05T17:12:04.404Z,96617.78
2022-12-05T17:14:33.214Z,96616.97
2022-12-05T17:17:01.595Z,96623.16
2022-12-05T17:19:30.710Z,96609.91
2022-12-05T17:21:59.166Z,96620.91
2022-12-05T17:24:28.460Z,96613.44
2022-12-05T17:26:58.629Z,96622.53
2022-12-05T17:29:31.054Z,96616.75
2022-12-05T17:32:03.086Z,96629.16
2022-12-05T17:34:31.891Z,96627.94
2022-12-05T17:37:00.330Z,96627.72
2022-12-05T17:39:29.121Z,96629.59
2022-12-05T17:41:59.910Z,96626.06
2022-12-05T17:44:28.326Z,96621.09
2022-12-05T17:46:57.217Z,96627.31
2022-12-05T17:49:26.445Z,96637.22
2022-12-05T17:54:43.717Z,96622.78
2022-12-05T17:57:13.880Z,96631.22
2022-12-05T17:59:42.274Z,96635.75
2022-12-05T18:02:11.335Z,96636.59
2022-12-05T18:04:40.338Z,96628.31
2022-12-05T18:07:08.973Z,96638.44
2022-12-05T18:09:37.312Z,96632.25
2022-12-05T18:12:06.771Z,96628.94
2022-12-05T18:14:36.862Z,96628.16
2022-12-05T18:17:05.881Z,96638.06
2022-12-05T18:19:35.185Z,96627.50
2022-12-05T18:22:05.908Z,96619.84
2022-12-05T18:24:34.237Z,96623.56
2022-12-05T18:27:02.932Z,96632.66
2022-12-05T18:29:31.286Z,96631.63
2022-12-05T18:32:01.485Z,96646.09
2022-12-05T18:34:29.950Z,96647.97
2022-12-05T18:36:58.578Z,96647.97
2022-12-05T18:39:27.340Z,96647.53
2022-12-05T18:41:56.272Z,96646.06
2022-12-05T18:44:24.843Z,96640.06
2022-12-05T18:46:53.230Z,96640.06
2022-12-05T18:49:22.979Z,96635.09
2022-12-05T18:51:52.360Z,96639.22
2022-12-05T18:54:20.773Z,96642.13
2022-12-05T18:56:52.759Z,96647.91
2022-12-05T18:59:22.689Z,96642.94
2022-12-05T19:01:51.432Z,96644.38
2022-12-05T19:04:21.618Z,96643.94
2022-12-05T19:06:53.426Z,96643.72
2022-12-05T19:09:23.487Z,96638.75
2022-12-05T19:11:55.353Z,96634.78
2022-12-05T19:14:24.978Z,96637.44
2022-12-05T19:16:59.884Z,96646.56
2022-12-05T19:19:29.605Z,96647.75
2022-12-05T19:21:59.755Z,96652.31
2022-12-05T19:24:28.143Z,96650.66
2022-12-05T19:26:56.868Z,96645.53
2022-12-05T19:29:25.864Z,96656.59
2022-12-05T19:31:54.295Z,96639.19
2022-12-05T19:34:24.519Z,96655.72
2022-12-05T19:36:53.020Z,96659.06
2022-12-05T19:39:27.143Z,96646.88
2022-12-05T19:41:57.596Z,96650.00
2022-12-05T19:44:26.593Z,96643.16
2022-12-05T19:46:55.026Z,96650.66
2022-12-05T19:49:24.315Z,96652.31
2022-12-05T19:51:52.657Z,96648.38
2022-12-05T19:54:22.442Z,96641.19
2022-12-05T19:56:53.717Z,96643.88
2022-12-05T19:59:22.601Z,96650.25
2022-12-05T20:01:51.020Z,96648.19
2022-12-05T20:04:19.894Z,96657.69
2022-12-05T20:06:49.978Z,96657.28
2022-12-05T20:09:22.306Z,96649.47
2022-12-05T20:11:55.414Z,96649.28
2022-12-05T20:14:26.401Z,96645.56
2022-12-05T20:16:55.062Z,96650.31
2022-12-05T20:19:24.390Z,96651.53
2022-12-05T20:21:55.287Z,96638.94
2022-12-05T20:24:24.118Z,96643.28
2022-12-05T20:26:53.828Z,96643.28
2022-12-05T20:29:22.743Z,96642.47
2022-12-05T20:31:52.152Z,96624.66
2022-12-05T20:34:21.314Z,96643.72
2022-12-05T20:36:49.643Z,96647.03
2022-12-05T20:39:19.298Z,96644.09
2022-12-05T20:41:47.688Z,96637.91
2022-12-05T20:44:18.118Z,96638.50
2022-12-05T20:46:46.817Z,96636.69
2022-12-05T20:49:15.686Z,96613.06
2022-12-05T20:51:45.521Z,96613.72
2022-12-05T20:54:16.693Z,96617.22
2022-12-05T20:56:45.927Z,96621.13
2022-12-05T20:59:15.634Z,96617.00
2022-12-05T21:01:47.040Z,96613.88
2022-12-05T21:04:16.093Z,96613.88
2022-12-05T21:06:45.921Z,96606.66
2022-12-05T21:09:26.738Z,96613.50
2022-12-05T21:11:55.430Z,96593.00
2022-12-05T21:14:24.458Z,96606.25
2022-12-05T21:16:54.292Z,96598.63
2022-12-05T21:19:23.797Z,96601.09
2022-12-05T21:21:53.765Z,96596.38
2022-12-05T21:24:22.925Z,96601.94
2022-12-05T21:26:51.766Z,96609.16
2022-12-05T21:29:20.386Z,96604.81
2022-12-05T21:31:51.196Z,96615.75
2022-12-05T21:34:22.124Z,96619.06
2022-12-05T21:36:50.869Z,96615.13
2022-12-05T21:39:19.846Z,96604.78
2022-12-05T21:41:48.260Z,96620.91
2022-12-05T21:44:17.388Z,96622.97
2022-12-05T21:46:46.753Z,96629.78
2022-12-05T21:49:15.802Z,96627.13
2022-12-05T21:51:45.518Z,96628.16
2022-12-05T21:54:14.329Z,96628.97
2022-12-05T21:56:43.422Z,96633.72
2022-12-05T21:59:12.231Z,96642.59
2022-12-05T22:01:40.613Z,96642.19
2022-12-05T22:04:09.526Z,96645.31
2022-12-05T22:06:37.888Z,96645.94
2022-12-05T22:09:08.417Z,96647.78
2022-12-05T22:11:36.778Z,96647.78
2022-12-05T22:14:05.113Z,96655.03
2022-12-05T22:16:34.113Z,96655.22
2022-12-05T22:19:03.339Z,96645.44
2022-12-05T22:21:34.038Z,96650.78
2022-12-05T22:24:02.902Z,96657.59
2022-12-05T22:26:32.695Z,96650.19
2022-12-05T22:29:01.432Z,96634.44
2022-12-05T22:31:30.301Z,96638.59
2022-12-05T22:33:58.875Z,96646.66
2022-12-05T22:36:27.865Z,96645.66
2022-12-05T22:38:56.236Z,96647.72
2022-12-05T22:41:26.859Z,96648.75
2022-12-05T22:43:58.456Z,96642.16
2022-12-05T22:46:29.168Z,96641.16
2022-12-05T22:48:58.363Z,96634.09
2022-12-05T22:51:28.036Z,96632.06
2022-12-05T22:53:57.798Z,96632.06
2022-12-05T22:56:28.674Z,96635.97
2022-12-05T22:59:00.614Z,96634.09
2022-12-05T23:01:31.110Z,96630.41
2022-12-05T23:04:01.335Z,96633.94
2022-12-05T23:06:32.141Z,96631.84
2022-12-05T23:09:01.767Z,96631.03
2022-12-05T23:11:31.210Z,96628.56
2022-12-05T23:14:02.511Z,96626.91
2022-12-05T23:16:33.915Z,96625.22
2022-12-05T23:19:05.360Z,96622.75
2022-12-05T23:21:37.010Z,96630.78
2022-12-05T23:24:08.622Z,96623.56
2022-12-05T23:26:39.701Z,96619.84
2022-12-05T23:29:11.963Z,96619.69
2022-12-05T23:31:41.133Z,96614.50
2022-12-05T23:34:10.370Z,96614.28
2022-12-05T23:36:39.816Z,96626.06
2022-12-05T23:39:08.351Z,96625.06
2022-12-05T23:41:37.448Z,96615.97
2022-12-05T23:44:06.165Z,96625.66
2022-12-05T23:46:36.579Z,96630.81
2022-12-05T23:49:05.177Z,96632.69
2022-12-05T23:51:34.042Z,96634.13
2022-12-05T23:54:04.331Z,96623.81
2022-12-05T23:56:34.525Z,96615.97
2022-12-05T23:59:06.279Z,96599.00
